createdAt,value
2022-11-25T00:00:42.267Z,82.79
2022-11-25T00:02:14.290Z,82.38
2022-11-25T00:03:46.644Z,82.24
2022-11-25T00:05:18.530Z,82.75
2022-11-25T00:06:50.435Z,82.84
2022-11-25T00:08:22.277Z,82.54
2022-11-25T00:09:54.153Z,82.49
2022-11-25T00:11:26.325Z,82.18
2022-11-25T00:12:58.162Z,82.26
2022-11-25T00:14:30.112Z,82.32
2022-11-25T00:16:05.810Z,81.86
2022-11-25T00:17:37.742Z,82.16
2022-11-25T00:19:10.151Z,82.20
2022-11-25T00:20:41.982Z,82.42
2022-11-25T00:22:13.881Z,82.74
2022-11-25T00:23:46.070Z,82.70
2022-11-25T00:25:18.043Z,82.65
2022-11-25T00:26:50.003Z,82.44
2022-11-25T00:28:21.879Z,82.19
2022-11-25T00:29:53.694Z,82.02
2022-11-25T00:31:26.909Z,81.95
2022-11-25T00:32:58.794Z,81.95
2022-11-25T00:34:30.703Z,81.93
2022-11-25T00:36:03.261Z,81.65
2022-11-25T00:37:35.089Z,81.89
2022-11-25T00:39:16.887Z,82.50
2022-11-25T00:41:12.732Z,82.70
2022-11-25T00:43:03.220Z,82.44
2022-11-25T00:44:41.676Z,82.70
2022-11-25T00:46:16.938Z,82.40
2022-11-25T00:47:48.744Z,82.57
2022-11-25T00:49:20.623Z,82.55
2022-11-25T00:50:52.540Z,82.89
2022-11-25T00:52:25.521Z,82.92
2022-11-25T00:53:59.079Z,83.01
2022-11-25T00:55:51.179Z,82.75
2022-11-25T00:57:23.619Z,82.75
2022-11-25T00:58:55.564Z,82.55
2022-11-25T01:00:27.456Z,82.42
2022-11-25T01:01:59.513Z,81.99
2022-11-25T01:03:31.441Z,81.83
2022-11-25T01:05:03.665Z,81.83
2022-11-25T01:06:36.031Z,81.93
2022-11-25T01:08:07.921Z,81.92
2022-11-25T01:09:39.896Z,81.41
2022-11-25T01:11:12.746Z,81.93
2022-11-25T01:12:47.319Z,81.72
2022-11-25T01:14:19.596Z,81.96
2022-11-25T01:15:51.456Z,81.64
2022-11-25T01:17:23.313Z,81.91
2022-11-25T01:18:55.244Z,81.82
2022-11-25T01:20:27.162Z,81.68
2022-11-25T01:21:59.023Z,81.67
2022-11-25T01:23:30.928Z,81.88
2022-11-25T01:25:02.790Z,81.90
2022-11-25T01:26:35.399Z,82.10
2022-11-25T01:28:07.297Z,81.94
2022-11-25T01:29:41.774Z,81.97
2022-11-25T01:31:15.304Z,81.96
2022-11-25T01:32:47.128Z,82.26
2022-11-25T01:34:20.106Z,82.34
2022-11-25T01:35:52.002Z,82.36
2022-11-25T01:37:23.993Z,82.34
2022-11-25T01:38:56.856Z,82.19
2022-11-25T01:40:28.851Z,81.98
2022-11-25T01:42:01.154Z,81.86
2022-11-25T01:43:33.101Z,81.89
2022-11-25T01:45:28.520Z,81.79
2022-11-25T01:47:00.722Z,81.86
2022-11-25T01:48:38.635Z,81.69
2022-11-25T01:50:11.159Z,81.66
2022-11-25T01:51:53.789Z,81.89
2022-11-25T01:53:25.583Z,82.01
2022-11-25T01:55:20.877Z,82.05
2022-11-25T01:56:54.643Z,81.81
2022-11-25T01:58:27.433Z,81.76
2022-11-25T02:00:00.021Z,81.96
2022-11-25T02:01:31.962Z,81.95
2022-11-25T02:03:03.848Z,81.98
2022-11-25T02:04:36.255Z,82.19
2022-11-25T02:06:08.415Z,81.94
2022-11-25T02:07:41.571Z,81.71
2022-11-25T02:09:13.410Z,81.59
2022-11-25T02:10:45.386Z,81.33
2022-11-25T02:12:18.131Z,81.77
2022-11-25T02:13:50.213Z,81.70
2022-11-25T02:15:22.437Z,81.56
2022-11-25T02:16:54.303Z,82.02
2022-11-25T02:18:26.423Z,81.92
2022-11-25T02:20:00.137Z,82.14
2022-11-25T02:21:34.483Z,82.14
2022-11-25T02:23:09.275Z,82.29
2022-11-25T02:24:45.316Z,81.88
2022-11-25T02:26:17.481Z,82.04
2022-11-25T02:27:50.606Z,81.54
2022-11-25T02:29:22.446Z,81.80
2022-11-25T02:30:54.413Z,81.69
2022-11-25T02:32:26.295Z,81.74
2022-11-25T02:56:24.370Z,81.74
2022-11-25T02:57:56.284Z,81.69
2022-11-25T02:59:28.283Z,81.91
2022-11-25T03:01:00.259Z,81.95
2022-11-25T03:02:35.308Z,81.74
2022-11-25T03:04:07.314Z,82.08
2022-11-25T03:05:39.164Z,81.86
2022-11-25T03:07:11.353Z,81.53
2022-11-25T03:08:43.304Z,81.87
2022-11-25T03:10:15.300Z,82.25
2022-11-25T03:12:05.574Z,81.97
2022-11-25T03:13:37.475Z,82.34
2022-11-25T03:15:09.682Z,82.75
2022-11-25T03:16:41.717Z,82.61
2022-11-25T03:18:13.684Z,82.79
2022-11-25T03:19:45.490Z,82.97
2022-11-25T03:21:17.303Z,82.92
2022-11-25T03:22:49.180Z,82.93
2022-11-25T03:24:21.002Z,82.93
2022-11-25T03:25:52.939Z,82.86
2022-11-25T03:27:27.998Z,82.99
2022-11-25T03:29:02.211Z,83.24
2022-11-25T03:32:09.519Z,83.01
2022-11-25T03:33:41.656Z,83.17
2022-11-25T03:35:13.863Z,83.54
2022-11-25T03:36:45.827Z,83.60
2022-11-25T03:38:17.758Z,83.42
2022-11-25T03:39:49.596Z,83.93
2022-11-25T03:41:21.362Z,83.92
2022-11-25T03:42:53.201Z,84.19
2022-11-25T03:44:25.335Z,84.03
2022-11-25T03:45:57.344Z,84.22
2022-11-25T03:47:29.316Z,84.14
2022-11-25T03:49:01.233Z,84.11
2022-11-25T03:50:33.137Z,84.48
2022-11-25T03:52:05.054Z,84.34
2022-11-25T03:53:36.951Z,84.20
2022-11-25T03:55:09.042Z,84.47
2022-11-25T03:56:40.970Z,84.02
2022-11-25T03:58:12.863Z,84.01
2022-11-25T03:59:44.716Z,83.80
2022-11-25T04:01:16.687Z,83.86
2022-11-25T04:02:48.605Z,84.06
2022-11-25T04:04:20.467Z,83.80
2022-11-25T04:05:52.366Z,83.99
2022-11-25T04:07:24.301Z,84.15
2022-11-25T04:08:56.272Z,84.35
2022-11-25T04:10:28.153Z,84.50
2022-11-25T04:12:18.477Z,84.21
2022-11-25T04:13:50.385Z,84.10
2022-11-25T04:15:22.321Z,83.89
2022-11-25T04:16:54.337Z,83.09
2022-11-25T04:18:26.313Z,82.36
2022-11-25T04:19:58.249Z,81.58
2022-11-25T04:21:30.147Z,81.94
2022-11-25T04:23:02.009Z,81.54
2022-11-25T04:24:34.185Z,80.86
2022-11-25T04:26:06.375Z,80.26
2022-11-25T04:27:38.362Z,80.03
2022-11-25T04:29:10.215Z,79.75
2022-11-25T04:30:42.293Z,79.62
2022-11-25T04:32:14.194Z,77.46
2022-11-25T04:33:51.101Z,76.20
2022-11-25T04:35:24.414Z,74.99
2022-11-25T04:36:56.329Z,74.45
2022-11-25T04:38:28.267Z,74.40
2022-11-25T04:40:00.250Z,73.46
2022-11-25T04:41:32.092Z,72.55
2022-11-25T04:43:09.148Z,71.91
2022-11-25T04:44:51.956Z,71.13
2022-11-25T04:46:29.559Z,70.78
2022-11-25T04:48:01.685Z,70.19
2022-11-25T04:49:33.598Z,70.71
2022-11-25T04:51:05.613Z,70.24
2022-11-25T04:52:37.467Z,70.04
2022-11-25T04:54:12.191Z,69.91
2022-11-25T04:55:47.968Z,69.55
2022-11-25T04:57:20.165Z,69.86
2022-11-25T04:59:10.889Z,70.21
2022-11-25T05:00:42.759Z,70.28
2022-11-25T05:02:21.893Z,69.50
2022-11-25T05:03:57.465Z,69.91
2022-11-25T05:05:29.702Z,69.35
2022-11-25T05:07:01.627Z,69.66
2022-11-25T05:08:33.546Z,69.75
2022-11-25T05:10:06.498Z,69.32
2022-11-25T05:11:38.601Z,69.80
2022-11-25T05:13:10.543Z,69.50
2022-11-25T05:14:42.420Z,69.48
2022-11-25T05:16:14.332Z,69.33
2022-11-25T05:17:46.327Z,69.44
2022-11-25T05:19:18.218Z,68.44
2022-11-25T05:20:50.104Z,68.51
2022-11-25T05:22:26.146Z,68.43
2022-11-25T05:23:58.031Z,68.33
2022-11-25T05:25:30.021Z,67.90
2022-11-25T05:27:05.110Z,67.40
2022-11-25T05:28:36.998Z,67.17
2022-11-25T05:30:10.504Z,67.12
2022-11-25T05:31:42.524Z,66.81
2022-11-25T05:33:14.519Z,67.07
2022-11-25T05:34:46.424Z,66.80
2022-11-25T05:36:18.394Z,66.72
2022-11-25T05:37:50.227Z,66.36
2022-11-25T05:39:22.085Z,66.55
2022-11-25T05:40:54.367Z,66.67
2022-11-25T05:42:26.266Z,67.06
2022-11-25T05:43:58.119Z,66.84
2022-11-25T05:45:29.979Z,66.64
2022-11-25T05:47:02.034Z,66.62
2022-11-25T05:48:36.899Z,66.74
2022-11-25T05:50:09.019Z,66.89
2022-11-25T05:51:40.894Z,67.10
2022-11-25T05:53:12.909Z,67.49
2022-11-25T05:54:44.903Z,67.19
2022-11-25T05:56:16.906Z,67.33
2022-11-25T05:57:48.946Z,66.81
2022-11-25T05:59:21.294Z,66.19
2022-11-25T06:00:53.617Z,66.33
2022-11-25T06:02:25.831Z,66.54
2022-11-25T06:04:01.407Z,65.72
2022-11-25T06:05:34.910Z,66.21
2022-11-25T06:07:07.825Z,66.62
2022-11-25T06:08:39.841Z,66.25
2022-11-25T06:10:11.849Z,66.21
2022-11-25T06:11:43.907Z,66.77
2022-11-25T06:13:15.823Z,65.69
2022-11-25T06:14:47.757Z,66.08
2022-11-25T06:16:20.881Z,66.13
2022-11-25T06:17:52.859Z,66.59
2022-11-25T06:19:24.748Z,66.53
2022-11-25T06:20:57.378Z,65.94
2022-11-25T06:22:29.237Z,65.29
2022-11-25T06:24:01.499Z,65.43
2022-11-25T06:25:33.756Z,65.67
2022-11-25T06:27:05.908Z,65.91
2022-11-25T06:30:09.988Z,65.10
2022-11-25T06:31:41.992Z,64.59
2022-11-25T06:33:13.948Z,64.82
2022-11-25T06:34:46.159Z,64.85
2022-11-25T06:36:18.519Z,65.39
2022-11-25T06:37:50.485Z,65.62
2022-11-25T06:39:22.592Z,66.16
2022-11-25T06:40:59.148Z,66.32
2022-11-25T06:42:32.328Z,65.28
2022-11-25T06:44:04.378Z,65.13
2022-11-25T06:45:36.353Z,64.90
2022-11-25T06:47:08.343Z,65.15
2022-11-25T06:48:40.164Z,65.05
2022-11-25T06:50:15.064Z,65.08
2022-11-25T06:51:47.019Z,64.80
2022-11-25T06:53:23.932Z,65.08
2022-11-25T06:54:56.176Z,64.55
2022-11-25T06:56:28.365Z,64.86
2022-11-25T06:58:27.875Z,65.23
2022-11-25T06:59:52.142Z,64.98
2022-11-25T07:01:25.362Z,65.18
2022-11-25T07:02:57.474Z,64.55
2022-11-25T07:04:29.610Z,64.23
2022-11-25T07:06:01.645Z,64.24
2022-11-25T07:07:33.630Z,64.29
2022-11-25T07:09:05.755Z,64.21
2022-11-25T07:10:37.750Z,64.16
2022-11-25T07:12:09.733Z,64.32
2022-11-25T07:13:41.762Z,64.67
2022-11-25T07:15:13.917Z,63.97
2022-11-25T07:16:46.142Z,64.31
2022-11-25T07:18:18.040Z,64.13
2022-11-25T07:19:49.928Z,63.89
2022-11-25T07:21:22.860Z,63.75
2022-11-25T07:22:54.738Z,64.00
2022-11-25T07:24:26.656Z,64.01
2022-11-25T07:26:18.158Z,64.81
2022-11-25T07:27:50.291Z,64.88
2022-11-25T07:31:27.030Z,64.65
2022-11-25T07:32:59.712Z,64.13
2022-11-25T07:34:31.995Z,64.46
2022-11-25T07:36:05.093Z,64.28
2022-11-25T07:37:37.219Z,64.12
2022-11-25T07:39:11.312Z,64.72
2022-11-25T07:40:43.370Z,63.90
2022-11-25T07:42:15.686Z,64.33
2022-11-25T07:43:48.611Z,63.92
2022-11-25T07:45:21.206Z,63.72
2022-11-25T07:46:53.272Z,63.71
2022-11-25T07:48:25.184Z,63.63
2022-11-25T07:49:57.876Z,63.50
2022-11-25T07:51:31.674Z,63.50
2022-11-25T07:53:03.753Z,62.44
2022-11-25T07:54:35.656Z,62.92
2022-11-25T07:56:07.889Z,61.63
2022-11-25T08:57:33.887Z,56.56
2022-11-25T08:59:05.771Z,55.46
2022-11-25T09:00:38.324Z,55.11
2022-11-25T09:02:13.758Z,55.40
2022-11-25T09:03:46.782Z,55.67
2022-11-25T09:05:19.018Z,55.55
2022-11-25T09:06:50.891Z,55.41
2022-11-25T09:08:26.314Z,55.40
2022-11-25T09:09:58.275Z,54.11
2022-11-25T09:11:30.551Z,53.70
2022-11-25T09:13:02.780Z,52.49
2022-11-25T09:14:34.997Z,52.09
2022-11-25T09:16:07.430Z,53.57
2022-11-25T09:17:42.521Z,52.54
2022-11-25T09:19:14.387Z,51.31
2022-11-25T09:20:46.677Z,51.94
2022-11-25T09:22:21.620Z,51.50
2022-11-25T09:23:54.400Z,50.29
2022-11-25T09:25:26.446Z,50.98
2022-11-25T09:26:58.411Z,51.86
2022-11-25T09:28:30.490Z,50.70
2022-11-25T09:30:02.452Z,51.02
2022-11-25T09:31:34.748Z,51.86
2022-11-25T09:33:06.898Z,52.20
2022-11-25T09:34:39.171Z,51.20
2022-11-25T09:36:12.166Z,51.14
2022-11-25T09:37:44.108Z,49.54
2022-11-25T09:39:16.151Z,49.16
2022-11-25T09:41:00.021Z,49.84
2022-11-25T09:42:59.569Z,49.96
2022-11-25T09:45:22.334Z,49.36
2022-11-25T09:47:05.303Z,50.13
2022-11-25T09:48:40.149Z,49.56
2022-11-25T09:50:14.819Z,49.48
2022-11-25T09:52:05.749Z,49.47
2022-11-25T09:53:57.532Z,49.36
2022-11-25T09:55:31.931Z,49.52
2022-11-25T09:57:05.511Z,48.73
2022-11-25T09:58:42.014Z,47.58
2022-11-25T10:00:17.653Z,47.19
2022-11-25T10:01:51.596Z,47.52
2022-11-25T10:03:43.344Z,46.57
2022-11-25T10:05:21.315Z,46.70
2022-11-25T10:06:55.805Z,46.98
2022-11-25T10:08:29.580Z,47.13
2022-11-25T10:10:02.274Z,47.11
2022-11-25T10:11:47.966Z,46.74
2022-11-25T10:13:21.964Z,47.91
2022-11-25T10:14:54.763Z,47.97
2022-11-25T10:18:04.470Z,47.49
2022-11-25T10:19:54.785Z,46.85
2022-11-25T10:21:26.687Z,47.59
2022-11-25T10:23:00.775Z,47.44
2022-11-25T10:24:34.965Z,47.85
2022-11-25T10:26:17.353Z,47.86
2022-11-25T10:28:02.320Z,48.84
2022-11-25T10:29:35.315Z,48.80
2022-11-25T10:31:11.802Z,48.55
2022-11-25T10:32:45.123Z,47.97
2022-11-25T10:34:30.918Z,47.60
2022-11-25T10:36:08.604Z,47.08
2022-11-25T10:37:41.387Z,46.90
2022-11-25T10:39:24.982Z,47.11
2022-11-25T10:40:57.272Z,46.82
2022-11-25T10:42:29.422Z,46.96
2022-11-25T10:44:01.413Z,47.11
2022-11-25T10:45:36.065Z,46.62
2022-11-25T10:47:16.651Z,46.58
2022-11-25T10:48:59.808Z,46.67
2022-11-25T10:50:35.577Z,45.99
2022-11-25T10:52:11.620Z,46.36
2022-11-25T10:53:43.784Z,45.18
2022-11-25T10:55:20.156Z,45.81
2022-11-25T10:56:55.184Z,45.72
2022-11-25T10:58:31.913Z,45.95
2022-11-25T11:00:05.155Z,45.43
2022-11-25T11:01:37.311Z,45.08
2022-11-25T11:03:22.980Z,44.20
2022-11-25T11:04:57.222Z,45.10
2022-11-25T11:06:39.793Z,44.91
2022-11-25T11:08:14.784Z,45.19
2022-11-25T11:09:48.781Z,44.90
2022-11-25T11:11:22.053Z,45.18
2022-11-25T11:13:00.754Z,45.52
2022-11-25T11:14:34.653Z,46.26
2022-11-25T11:16:21.364Z,45.68
2022-11-25T11:17:54.368Z,45.72
2022-11-25T11:19:30.205Z,46.63
2022-11-25T11:21:03.400Z,46.94
2022-11-25T11:22:36.310Z,47.51
2022-11-25T11:24:28.587Z,46.38
2022-11-25T11:26:07.403Z,47.24
2022-11-25T11:27:39.362Z,47.19
2022-11-25T11:29:15.129Z,47.29
2022-11-25T11:31:08.345Z,47.42
2022-11-25T11:32:40.521Z,47.48
2022-11-25T11:34:35.950Z,47.25
2022-11-25T11:36:13.377Z,47.99
2022-11-25T11:37:46.315Z,48.34
2022-11-25T11:39:22.648Z,48.74
2022-11-25T11:40:56.168Z,48.83
2022-11-25T11:42:37.305Z,48.65
2022-11-25T11:44:32.656Z,49.49
2022-11-25T11:46:23.353Z,48.90
2022-11-25T11:48:13.132Z,48.66
2022-11-25T11:49:48.475Z,48.42
2022-11-25T11:51:26.718Z,48.33
2022-11-25T11:53:02.919Z,48.35
2022-11-25T11:54:37.135Z,46.94
2022-11-25T11:56:36.672Z,47.46
2022-11-25T11:58:25.642Z,48.21
2022-11-25T12:00:00.138Z,47.39
2022-11-25T12:01:34.908Z,48.87
2022-11-25T12:03:20.021Z,47.99
2022-11-25T12:04:54.912Z,48.74
2022-11-25T12:06:28.983Z,49.22
2022-11-25T12:08:04.257Z,48.30
2022-11-25T12:09:43.877Z,48.48
2022-11-25T12:11:18.206Z,48.55
2022-11-25T12:12:52.697Z,49.18
2022-11-25T12:14:24.877Z,48.49
2022-11-25T12:16:09.499Z,49.99
2022-11-25T12:17:43.189Z,48.74
2022-11-25T12:19:34.035Z,48.87
2022-11-25T12:21:07.796Z,49.91
2022-11-25T12:22:49.090Z,50.67
2022-11-25T12:24:24.321Z,50.49
2022-11-25T12:25:58.475Z,50.11
2022-11-25T12:27:41.158Z,49.83
2022-11-25T12:29:14.567Z,49.63
2022-11-25T12:31:03.449Z,49.43
2022-11-25T12:32:37.128Z,48.41
2022-11-25T12:34:29.422Z,48.22
2022-11-25T12:36:05.563Z,48.32
2022-11-25T12:37:45.508Z,48.17
2022-11-25T12:39:21.204Z,48.07
2022-11-25T12:40:56.224Z,47.32
2022-11-25T12:42:28.169Z,48.03
2022-11-25T12:44:12.794Z,47.00
2022-11-25T12:45:45.401Z,47.89
2022-11-25T12:47:17.551Z,47.85
2022-11-25T12:48:49.917Z,48.09
2022-11-25T12:50:27.326Z,47.99
2022-11-25T12:52:11.411Z,48.22
2022-11-25T12:54:03.498Z,48.50
2022-11-25T12:55:35.360Z,47.65
2022-11-25T12:57:26.205Z,46.79
2022-11-25T12:59:11.200Z,47.27
2022-11-25T13:00:49.328Z,46.90
2022-11-25T13:02:29.927Z,47.50
2022-11-25T13:04:16.800Z,46.74
2022-11-25T13:05:55.326Z,46.68
2022-11-25T13:07:28.286Z,45.75
2022-11-25T13:09:19.171Z,45.88
2022-11-25T13:10:54.261Z,45.94
2022-11-25T13:12:32.372Z,46.83
2022-11-25T13:14:05.843Z,47.11
2022-11-25T13:15:44.779Z,47.62
2022-11-25T13:17:17.466Z,47.21
2022-11-25T13:18:49.892Z,47.64
2022-11-25T13:20:24.629Z,48.19
2022-11-25T13:21:57.734Z,46.49
2022-11-25T13:23:30.244Z,47.16
2022-11-25T13:25:02.700Z,46.52
2022-11-25T13:26:38.857Z,46.37
2022-11-25T13:28:29.704Z,45.81
2022-11-25T13:30:04.917Z,46.11
2022-11-25T13:31:59.002Z,45.95
2022-11-25T13:33:43.409Z,46.74
2022-11-25T13:35:29.939Z,46.82
2022-11-25T13:37:25.304Z,46.82
2022-11-25T13:38:57.263Z,47.10
2022-11-25T13:40:30.836Z,47.62
2022-11-25T13:42:13.319Z,47.97
2022-11-25T13:43:54.147Z,48.22
2022-11-25T13:45:30.480Z,48.53
2022-11-25T13:47:20.896Z,48.89
2022-11-25T13:48:52.873Z,49.37
2022-11-25T13:50:36.800Z,50.00
2022-11-25T13:52:26.243Z,49.80
2022-11-25T13:53:58.903Z,50.03
2022-11-25T13:55:38.190Z,49.78
2022-11-25T13:57:13.271Z,49.98
2022-11-25T13:59:04.326Z,50.30
2022-11-25T14:00:36.394Z,50.85
2022-11-25T14:02:25.551Z,50.22
2022-11-25T14:03:57.962Z,50.38
2022-11-25T14:05:33.133Z,50.57
2022-11-25T14:07:15.672Z,50.16
2022-11-25T14:09:06.915Z,50.19
2022-11-25T14:10:46.198Z,50.42
2022-11-25T14:12:33.472Z,50.46
2022-11-25T14:14:19.462Z,50.62
2022-11-25T14:16:00.010Z,50.57
2022-11-25T14:17:36.096Z,51.00
2022-11-25T14:19:50.603Z,51.03
2022-11-25T14:21:37.672Z,51.15
2022-11-25T14:23:09.702Z,51.75
2022-11-25T14:26:48.118Z,51.09
2022-11-25T14:28:37.334Z,51.54
2022-11-25T14:30:09.674Z,51.28
2022-11-25T14:31:45.100Z,51.38
2022-11-25T14:33:18.006Z,51.42
2022-11-25T14:34:51.886Z,51.56
2022-11-25T14:36:31.486Z,51.52
2022-11-25T14:38:08.435Z,51.71
2022-11-25T14:39:58.945Z,51.80
2022-11-25T14:41:33.147Z,51.88
2022-11-25T14:43:24.100Z,51.91
2022-11-25T14:44:57.621Z,52.14
2022-11-25T14:46:29.701Z,52.43
2022-11-25T14:48:14.901Z,52.54
2022-11-25T14:51:46.112Z,52.82
2022-11-25T14:53:19.768Z,52.94
2022-11-25T14:54:52.337Z,52.91
2022-11-25T14:56:26.621Z,53.01
2022-11-25T14:57:58.686Z,53.35
2022-11-25T14:59:30.864Z,53.71
2022-11-25T15:01:07.439Z,53.72
2022-11-25T15:02:43.139Z,53.87
2022-11-25T15:04:19.428Z,53.89
2022-11-25T15:05:58.274Z,54.14
2022-11-25T15:07:31.443Z,54.25
2022-11-25T15:09:20.634Z,54.32
2022-11-25T15:10:52.745Z,54.47
2022-11-25T15:12:24.947Z,54.33
2022-11-25T15:14:05.315Z,54.54
2022-11-25T15:15:37.295Z,54.58
2022-11-25T15:17:09.865Z,54.27
2022-11-25T15:19:01.621Z,54.31
2022-11-25T15:20:35.680Z,54.59
2022-11-25T15:22:22.451Z,54.50
2022-11-25T15:23:55.182Z,54.67
2022-11-25T15:25:27.374Z,54.84
2022-11-25T15:27:00.744Z,54.58
2022-11-25T15:28:36.678Z,54.69
2022-11-25T15:30:24.884Z,54.95
2022-11-25T15:31:56.963Z,54.91
2022-11-25T15:33:29.700Z,55.14
2022-11-25T15:35:02.051Z,55.21
2022-11-25T15:36:34.213Z,55.41
2022-11-25T15:38:38.855Z,55.34
2022-11-25T15:40:29.283Z,55.51
2022-11-25T15:42:07.592Z,55.58
2022-11-25T15:43:43.988Z,55.67
2022-11-25T15:45:18.859Z,56.08
2022-11-25T15:46:55.407Z,55.95
2022-11-25T15:48:30.064Z,56.15
2022-11-25T15:50:06.573Z,56.23
2022-11-25T15:51:42.187Z,56.32
2022-11-25T15:53:23.745Z,56.53
2022-11-25T15:55:02.709Z,57.08
2022-11-25T15:56:36.519Z,57.40
2022-11-25T15:58:12.475Z,57.52
2022-11-25T15:59:49.111Z,57.60
2022-11-25T16:01:24.389Z,57.85
2022-11-25T16:02:58.365Z,58.07
2022-11-25T16:04:30.415Z,58.66
2022-11-25T16:06:02.782Z,59.07
2022-11-25T16:07:34.961Z,59.02
2022-11-25T16:09:18.886Z,60.03
2022-11-25T16:10:52.317Z,61.07
2022-11-25T16:12:24.446Z,61.86
2022-11-25T16:14:04.685Z,62.08
2022-11-25T16:15:44.035Z,62.90
2022-11-25T16:17:16.177Z,62.70
2022-11-25T16:19:10.571Z,62.69
2022-11-25T16:20:55.706Z,63.85
2022-11-25T16:22:27.896Z,64.27
2022-11-25T16:24:00.840Z,64.73
2022-11-25T16:25:32.865Z,64.56
2022-11-25T16:27:05.199Z,64.91
2022-11-25T16:28:37.300Z,65.27
2022-11-25T16:30:18.069Z,65.59
2022-11-25T16:31:50.314Z,65.16
2022-11-25T16:33:22.465Z,65.71
2022-11-25T16:34:57.924Z,65.92
2022-11-25T16:36:30.048Z,66.17
2022-11-25T16:38:02.184Z,66.20
2022-11-25T16:39:37.651Z,66.17
2022-11-25T16:41:10.822Z,66.42
2022-11-25T16:42:43.300Z,66.89
2022-11-25T16:44:18.540Z,67.24
2022-11-25T16:45:51.766Z,67.50
2022-11-25T16:47:24.653Z,67.62
2022-11-25T16:48:57.015Z,68.04
2022-11-25T16:50:29.262Z,68.57
2022-11-25T16:52:01.469Z,68.68
2022-11-25T16:53:33.412Z,68.99
2022-11-25T16:55:05.766Z,69.02
2022-11-25T16:56:38.329Z,69.62
2022-11-25T16:58:18.103Z,69.80
2022-11-25T16:59:53.244Z,70.08
2022-11-25T17:01:28.207Z,70.26
2022-11-25T17:03:00.502Z,70.50
2022-11-25T17:04:32.551Z,70.18
2022-11-25T17:06:09.660Z,70.14
2022-11-25T17:09:15.301Z,70.58
2022-11-25T17:10:47.577Z,70.73
2022-11-25T17:12:23.531Z,70.72
2022-11-25T17:13:55.937Z,71.32
2022-11-25T17:15:31.326Z,71.79
2022-11-25T17:17:05.532Z,71.79
2022-11-25T17:18:38.058Z,71.92
2022-11-25T17:20:16.971Z,72.08
2022-11-25T17:21:49.410Z,72.48
2022-11-25T17:23:22.929Z,72.63
2022-11-25T17:24:55.429Z,72.89
2022-11-25T17:26:38.034Z,73.19
2022-11-25T17:28:11.327Z,73.40
2022-11-25T17:29:43.847Z,73.51
2022-11-25T17:31:16.335Z,73.72
2022-11-25T17:32:48.705Z,73.80
2022-11-25T17:34:20.879Z,73.98
2022-11-25T17:35:53.098Z,74.28
2022-11-25T17:39:04.966Z,74.65
2022-11-25T17:40:38.469Z,74.42
2022-11-25T17:42:14.185Z,74.53
2022-11-25T17:43:47.133Z,74.30
2022-11-25T17:45:20.189Z,74.31
2022-11-25T17:46:52.693Z,74.25
2022-11-25T17:48:24.922Z,74.30
2022-11-25T17:49:58.431Z,74.26
2022-11-25T17:51:30.461Z,74.36
2022-11-25T17:53:02.528Z,74.13
2022-11-25T17:54:34.725Z,74.42
2022-11-25T17:56:18.929Z,74.70
2022-11-25T17:57:50.856Z,74.82
2022-11-25T17:59:24.523Z,74.74
2022-11-25T18:00:56.580Z,74.84
2022-11-25T18:02:31.883Z,74.73
2022-11-25T18:04:17.477Z,74.64
2022-11-25T18:05:49.740Z,74.92
2022-11-25T18:08:53.653Z,75.06
2022-11-25T18:10:26.814Z,75.30
2022-11-25T18:11:59.924Z,75.26
2022-11-25T18:13:32.787Z,74.83
2022-11-25T18:15:08.672Z,74.60
2022-11-25T18:16:42.146Z,74.33
2022-11-25T18:18:20.756Z,74.53
2022-11-25T18:19:55.339Z,74.45
2022-11-25T18:21:27.965Z,74.70
2022-11-25T18:23:00.593Z,74.68
2022-11-25T18:24:32.662Z,74.81
2022-11-25T18:26:04.855Z,74.49
2022-11-25T18:27:36.846Z,74.92
2022-11-25T18:29:12.457Z,74.84
2022-11-25T18:30:44.474Z,74.80
2022-11-25T18:32:16.755Z,75.43
2022-11-25T18:33:48.886Z,75.02
2022-11-25T18:35:25.116Z,75.12
2022-11-25T18:36:57.353Z,75.25
2022-11-25T18:38:29.733Z,75.07
2022-11-25T18:40:01.757Z,75.04
2022-11-25T18:41:33.639Z,75.06
2022-11-25T18:43:06.309Z,75.07
2022-11-25T18:44:42.590Z,75.01
2022-11-25T18:46:15.396Z,74.57
2022-11-25T18:47:47.920Z,74.61
2022-11-25T18:49:19.920Z,75.18
2022-11-25T18:50:52.986Z,75.26
2022-11-25T18:52:25.456Z,74.88
2022-11-25T18:53:57.347Z,75.47
2022-11-25T18:55:29.348Z,75.42
2022-11-25T18:57:01.762Z,75.18
2022-11-25T18:58:33.903Z,75.69
2022-11-25T19:00:31.116Z,75.69
2022-11-25T19:01:59.597Z,75.44
2022-11-25T19:03:31.676Z,75.40
2022-11-25T19:05:06.729Z,75.26
2022-11-25T19:06:38.732Z,75.05
2022-11-25T19:08:10.997Z,74.63
2022-11-25T19:09:43.326Z,74.96
2022-11-25T19:11:17.235Z,74.78
2022-11-25T19:12:50.808Z,74.79
2022-11-25T19:14:30.300Z,74.54
2022-11-25T19:16:06.648Z,74.09
2022-11-25T19:17:38.690Z,73.90
2022-11-25T19:19:13.904Z,73.78
2022-11-25T19:20:46.092Z,73.71
2022-11-25T19:22:19.765Z,73.81
2022-11-25T19:23:51.924Z,72.98
2022-11-25T19:25:24.164Z,73.02
2022-11-25T19:26:56.967Z,73.00
2022-11-25T19:28:29.242Z,72.92
2022-11-25T19:30:01.322Z,73.09
2022-11-25T19:31:33.403Z,73.14
2022-11-25T19:33:05.436Z,73.05
2022-11-25T19:34:38.940Z,72.59
2022-11-25T19:36:13.680Z,72.31
2022-11-25T19:37:45.804Z,72.06
2022-11-25T19:39:19.017Z,72.03
2022-11-25T19:40:51.129Z,72.17
2022-11-25T19:42:26.074Z,72.16
2022-11-25T19:43:58.097Z,72.17
2022-11-25T19:45:31.494Z,72.15
2022-11-25T19:47:19.210Z,71.68
2022-11-25T19:48:51.159Z,71.63
2022-11-25T19:50:24.027Z,71.60
2022-11-25T19:51:56.071Z,71.93
2022-11-25T19:53:33.509Z,71.75
2022-11-25T19:55:16.025Z,71.48
2022-11-25T19:56:47.976Z,71.35
2022-11-25T19:58:19.871Z,71.53
2022-11-25T19:59:51.798Z,71.75
2022-11-25T20:01:25.047Z,72.05
2022-11-25T20:02:57.259Z,71.88
2022-11-25T20:04:29.243Z,71.39
2022-11-25T20:06:01.184Z,71.40
2022-11-25T20:07:33.212Z,71.66
2022-11-25T20:09:08.133Z,71.38
2022-11-25T20:10:40.292Z,71.69
2022-11-25T20:12:15.298Z,71.25
2022-11-25T20:13:47.846Z,71.33
2022-11-25T20:15:20.365Z,71.24
2022-11-25T20:16:52.769Z,71.14
2022-11-25T20:18:25.184Z,71.34
2022-11-25T20:19:58.770Z,70.85
2022-11-25T20:21:33.620Z,71.24
2022-11-25T20:23:11.068Z,71.13
2022-11-25T20:24:43.135Z,70.95
2022-11-25T20:26:16.593Z,70.95
2022-11-25T20:27:48.494Z,71.06
2022-11-25T20:29:24.548Z,70.83
2022-11-25T20:31:02.250Z,70.72
2022-11-25T20:32:36.703Z,70.61
2022-11-25T20:34:09.143Z,70.90
2022-11-25T20:35:43.001Z,70.70
2022-11-25T20:37:16.447Z,71.03
2022-11-25T20:38:53.157Z,71.57
2022-11-25T20:40:26.069Z,71.87
2022-11-25T20:41:59.013Z,72.11
2022-11-25T20:43:35.086Z,72.47
2022-11-25T20:45:10.275Z,72.26
2022-11-25T20:46:42.269Z,71.98
2022-11-25T20:48:14.263Z,72.18
2022-11-25T20:49:46.871Z,72.64
2022-11-25T20:51:21.711Z,72.17
2022-11-25T20:52:53.807Z,71.93
2022-11-25T20:54:25.948Z,71.85
2022-11-25T20:55:57.848Z,72.27
2022-11-25T20:57:29.862Z,72.24
2022-11-25T20:59:01.944Z,72.39
2022-11-25T21:00:34.158Z,72.54
2022-11-25T21:02:06.220Z,72.70
2022-11-25T21:03:38.373Z,72.74
2022-11-25T21:05:10.440Z,73.25
2022-11-25T21:06:42.299Z,72.90
2022-11-25T21:08:19.002Z,73.08
2022-11-25T21:09:51.213Z,73.17
2022-11-25T21:11:23.429Z,73.31
2022-11-25T21:12:55.782Z,73.56
2022-11-25T21:14:27.713Z,73.77
2022-11-25T21:15:59.975Z,73.68
2022-11-25T21:17:31.900Z,73.77
2022-11-25T21:20:39.470Z,73.32
2022-11-25T21:22:13.599Z,73.49
2022-11-25T21:23:45.782Z,73.28
2022-11-25T21:25:18.587Z,73.72
2022-11-25T21:26:50.845Z,73.63
2022-11-25T21:28:24.738Z,73.36
2022-11-25T21:29:59.625Z,73.26
2022-11-25T21:31:31.543Z,73.04
2022-11-25T21:33:06.907Z,73.16
2022-11-25T21:34:39.183Z,73.26
2022-11-25T21:36:21.535Z,73.63
2022-11-25T21:37:53.439Z,73.77
2022-11-25T21:39:30.575Z,73.92
2022-11-25T21:41:02.462Z,74.20
2022-11-25T21:42:34.319Z,74.59
2022-11-25T21:44:06.658Z,74.85
2022-11-25T21:45:38.603Z,75.34
2022-11-25T21:47:20.886Z,75.46
2022-11-25T21:48:52.918Z,75.69
2022-11-25T21:50:29.729Z,75.85
2022-11-25T21:52:01.666Z,75.76
2022-11-25T21:53:37.281Z,75.50
2022-11-25T21:55:11.736Z,75.73
2022-11-25T21:56:46.327Z,75.69
2022-11-25T21:58:22.218Z,76.21
2022-11-25T21:59:54.282Z,76.24
2022-11-25T22:01:26.418Z,75.88
2022-11-25T22:02:58.508Z,76.00
2022-11-25T22:04:30.379Z,76.55